createdAt,value
2022-12-11T00:01:44.765Z,99922.63
2022-12-11T00:04:14.383Z,99926.09
2022-12-11T00:06:40.874Z,99933.88
2022-12-11T00:09:07.307Z,99926.03
2022-12-11T00:11:33.842Z,99934.69
2022-12-11T00:14:00.312Z,99908.75
2022-12-11T00:16:27.433Z,99926.00
2022-12-11T00:18:54.784Z,99930.34
2022-12-11T00:21:21.324Z,99927.75
2022-12-11T00:23:47.787Z,99923.44
2022-12-11T00:26:16.052Z,99921.69
2022-12-11T00:28:43.939Z,99918.19
2022-12-11T00:31:14.747Z,99882.84
2022-12-11T00:33:42.233Z,99918.16
2022-12-11T00:36:18.136Z,99920.59
2022-12-11T00:38:44.757Z,99925.78
2022-12-11T00:41:11.849Z,99905.97
2022-12-11T00:43:38.706Z,99904.25
2022-12-11T00:46:05.357Z,99928.47
2022-12-11T00:48:32.492Z,99896.53
2022-12-11T00:50:59.132Z,99929.31
2022-12-11T00:53:25.831Z,99894.78
2022-12-11T00:55:52.375Z,99925.84
2022-12-11T00:58:19.075Z,99920.66
2022-12-11T01:00:45.957Z,99893.06
2022-12-11T01:03:15.108Z,99925.00
2022-12-11T01:05:41.688Z,99906.03
2022-12-11T01:08:08.438Z,99928.44
2022-12-11T01:10:37.423Z,99925.84
2022-12-11T01:13:06.784Z,99893.94
2022-12-11T01:15:44.886Z,99893.06
2022-12-11T01:18:13.631Z,99931.03
2022-12-11T01:20:42.512Z,99937.09
2022-12-11T01:23:13.066Z,99906.84
2022-12-11T01:25:40.363Z,99930.13
2022-12-11T01:28:07.456Z,99925.75
2022-12-11T01:30:34.648Z,99928.34
2022-12-11T01:33:01.205Z,99905.97
2022-12-11T01:35:28.412Z,99914.59
2022-12-11T01:37:55.352Z,99901.66
2022-12-11T01:40:22.367Z,99917.19
2022-12-11T01:42:48.943Z,99905.13
2022-12-11T01:45:34.557Z,99916.34
2022-12-11T01:48:06.923Z,99920.59
2022-12-11T01:50:38.738Z,99892.13
2022-12-11T01:53:08.803Z,99912.88
2022-12-11T01:55:37.794Z,99881.78
2022-12-11T01:58:05.532Z,99915.44
2022-12-11T02:00:32.217Z,99915.41
2022-12-11T02:02:58.725Z,99922.28
2022-12-11T02:05:25.202Z,99919.59
2022-12-11T02:07:58.096Z,99923.06
2022-12-11T02:10:39.038Z,99916.88
2022-12-11T02:13:27.477Z,99919.41
2022-12-11T02:16:29.251Z,99916.81
2022-12-11T02:19:05.810Z,99916.00
2022-12-11T02:21:41.208Z,99918.59
2022-12-11T02:24:40.120Z,99922.06
2022-12-11T02:27:15.849Z,99920.38
2022-12-11T02:29:58.765Z,99917.84
2022-12-11T02:32:54.701Z,99927.31
2022-12-11T02:35:44.984Z,99929.97
2022-12-11T02:38:27.216Z,99908.34
2022-12-11T02:40:56.606Z,99936.91
2022-12-11T02:43:25.407Z,99946.44
2022-12-11T02:45:53.961Z,99948.16
2022-12-11T02:48:24.228Z,99913.66
2022-12-11T02:50:57.721Z,99930.00
2022-12-11T02:53:28.637Z,99940.31
2022-12-11T02:56:08.805Z,99917.09
2022-12-11T02:58:40.978Z,99930.84
2022-12-11T03:01:07.856Z,99932.56
2022-12-11T03:03:34.433Z,99932.56
2022-12-11T03:06:00.956Z,99928.25
2022-12-11T03:08:27.563Z,99910.16
2022-12-11T03:10:54.177Z,99931.72
2022-12-11T03:13:22.824Z,99932.59
2022-12-11T03:16:12.147Z,99941.25
2022-12-11T03:18:56.153Z,99929.16
2022-12-11T03:21:38.991Z,99930.00
2022-12-11T03:24:11.312Z,99901.56
2022-12-11T03:26:43.459Z,99910.91
2022-12-11T03:29:21.428Z,99913.31
2022-12-11T03:32:03.275Z,99917.63
2022-12-11T03:34:58.418Z,99930.59
2022-12-11T03:37:27.617Z,99916.63
2022-12-11T03:40:03.092Z,99891.59
2022-12-11T03:42:30.782Z,99912.25
2022-12-11T03:44:59.369Z,99924.25
2022-12-11T03:47:28.567Z,99925.97
2022-12-11T03:49:58.515Z,99922.47
2022-12-11T03:52:27.586Z,99920.75
2022-12-11T03:54:57.799Z,99928.50
2022-12-11T03:57:28.953Z,99932.88
2022-12-11T03:59:55.537Z,99927.72
2022-12-11T04:02:22.066Z,99885.44
2022-12-11T04:04:48.769Z,99926.88
2022-12-11T04:07:15.476Z,99891.50
2022-12-11T04:09:41.984Z,99917.34
2022-12-11T04:12:08.604Z,99913.88
2022-12-11T04:14:54.225Z,99921.56
2022-12-11T04:17:41.010Z,99922.44
2022-12-11T04:20:26.418Z,99924.13
2022-12-11T04:23:11.778Z,99919.84
2022-12-11T04:25:38.276Z,99921.66
2022-12-11T04:28:05.281Z,99916.47
2022-12-11T04:30:34.264Z,99925.09
2022-12-11T04:33:02.255Z,99903.59
2022-12-11T04:35:28.795Z,99922.53
2022-12-11T04:37:55.377Z,99909.53
2022-12-11T04:40:22.065Z,99915.50
2022-12-11T04:42:48.671Z,99918.97
2022-12-11T04:45:15.452Z,99912.88
2022-12-11T04:47:42.456Z,99892.31
2022-12-11T04:50:11.621Z,99913.84
2022-12-11T04:52:38.253Z,99920.81
2022-12-11T04:55:06.573Z,99910.50
2022-12-11T04:57:33.682Z,99917.44
2022-12-11T05:00:00.325Z,99924.44
2022-12-11T05:02:27.196Z,99886.63
2022-12-11T05:04:53.797Z,99919.44
2022-12-11T05:07:20.515Z,99890.91
2022-12-11T05:09:47.230Z,99915.81
2022-12-11T05:12:13.875Z,99903.66
2022-12-11T05:14:40.601Z,99920.00
2022-12-11T05:17:07.239Z,99903.56
2022-12-11T05:19:33.924Z,99909.59
2022-12-11T05:22:00.501Z,99903.53
2022-12-11T05:24:27.038Z,99894.84
2022-12-11T05:26:53.556Z,99893.91
2022-12-11T05:29:20.129Z,99878.44
2022-12-11T05:31:46.750Z,99887.13
2022-12-11T05:34:15.220Z,99903.56
2022-12-11T05:36:41.856Z,99899.28
2022-12-11T05:39:09.703Z,99896.66
2022-12-11T05:41:36.445Z,99900.09
2022-12-11T05:44:03.117Z,99868.25
2022-12-11T05:46:31.123Z,99861.28
2022-12-11T05:49:00.522Z,99890.53
2022-12-11T05:51:28.943Z,99880.03
2022-12-11T05:53:56.806Z,99871.44
2022-12-11T05:56:28.695Z,99885.31
2022-12-11T05:58:56.130Z,99853.50
2022-12-11T06:01:27.609Z,99864.00
2022-12-11T06:03:55.612Z,99870.97
2022-12-11T06:06:22.881Z,99864.28
2022-12-11T06:08:54.316Z,99884.13
2022-12-11T06:11:24.221Z,99881.59
2022-12-11T06:13:52.321Z,99878.94
2022-12-11T06:16:20.212Z,99872.88
2022-12-11T06:18:47.063Z,99872.81
2022-12-11T06:21:16.302Z,99878.81
2022-12-11T06:23:43.973Z,99879.63
2022-12-11T06:26:11.345Z,99875.25
2022-12-11T06:28:37.954Z,99877.88
2022-12-11T06:31:04.676Z,99883.09
2022-12-11T06:33:31.491Z,99884.03
2022-12-11T06:36:03.211Z,99840.97
2022-12-11T06:38:30.232Z,99868.56
2022-12-11T06:41:01.928Z,99820.38
2022-12-11T06:43:28.712Z,99850.56
2022-12-11T06:46:00.629Z,99883.34
2022-12-11T06:48:30.165Z,99875.56
2022-12-11T06:50:57.889Z,99870.38
2022-12-11T06:53:24.400Z,99866.03
2022-12-11T06:55:51.039Z,99868.63
2022-12-11T06:58:17.709Z,99865.16
2022-12-11T07:00:44.280Z,99869.50
2022-12-11T07:03:11.603Z,99847.97
2022-12-11T07:05:38.035Z,99872.09
2022-12-11T07:08:04.751Z,99866.06
2022-12-11T07:10:32.416Z,99883.38
2022-12-11T07:12:58.985Z,99884.25
2022-12-11T07:15:25.752Z,99888.56
2022-12-11T07:17:52.493Z,99883.38
2022-12-11T07:20:19.077Z,99848.88
2022-12-11T07:22:46.788Z,99873.84
2022-12-11T07:25:14.096Z,99875.56
2022-12-11T07:27:41.736Z,99849.72
2022-12-11T07:30:09.293Z,99888.56
2022-12-11T07:32:35.881Z,99891.13
2022-12-11T07:35:02.807Z,99859.22
2022-12-11T07:37:29.350Z,99879.88
2022-12-11T07:39:55.887Z,99883.34
2022-12-11T07:42:22.495Z,99899.72
2022-12-11T07:44:49.015Z,99885.91
2022-12-11T07:47:15.545Z,99902.31
2022-12-11T07:49:42.113Z,99902.31
2022-12-11T07:52:08.726Z,99895.38
2022-12-11T07:54:35.842Z,99868.66
2022-12-11T07:57:02.508Z,99891.91
2022-12-11T07:59:29.077Z,99896.31
2022-12-11T08:01:55.673Z,99884.25
2022-12-11T08:04:22.210Z,99906.63
2022-12-11T08:06:48.783Z,99901.44
2022-12-11T08:09:20.992Z,99904.88
2022-12-11T08:11:51.876Z,99904.88
2022-12-11T08:14:18.801Z,99897.94
2022-12-11T08:16:45.651Z,99887.59
2022-12-11T08:19:12.858Z,99899.69
2022-12-11T08:21:40.388Z,99901.41
2022-12-11T08:24:09.087Z,99899.66
2022-12-11T08:26:35.945Z,99898.78
2022-12-11T08:29:02.956Z,99898.78
2022-12-11T08:31:30.310Z,99904.78
2022-12-11T08:33:57.607Z,99903.91
2022-12-11T08:36:26.373Z,99891.78
2022-12-11T08:38:55.518Z,99887.41
2022-12-11T08:41:25.592Z,99880.41
2022-12-11T08:43:57.676Z,99890.81
2022-12-11T08:46:27.661Z,99890.84
2022-12-11T08:48:55.306Z,99897.78
2022-12-11T08:51:26.027Z,99898.56
2022-12-11T08:53:54.444Z,99905.44
2022-12-11T08:56:23.703Z,99901.91
2022-12-11T08:58:50.996Z,99895.72
2022-12-11T09:01:26.938Z,99892.16
2022-12-11T09:03:55.212Z,99894.56
2022-12-11T09:06:24.295Z,99895.31
2022-12-11T09:08:53.431Z,99896.94
2022-12-11T09:11:28.656Z,99889.06
2022-12-11T09:13:55.440Z,99886.44
2022-12-11T09:16:25.584Z,99881.91
2022-12-11T09:18:55.147Z,99888.78
2022-12-11T09:21:26.706Z,99892.19
2022-12-11T09:23:55.930Z,99878.31
2022-12-11T09:26:23.432Z,99858.47
2022-12-11T09:28:53.901Z,99889.47
2022-12-11T09:31:26.842Z,99889.41
2022-12-11T09:33:58.686Z,99865.50
2022-12-11T09:36:25.656Z,99897.59
2022-12-11T09:38:52.631Z,99901.19
2022-12-11T09:41:22.168Z,99896.91
2022-12-11T09:44:27.269Z,99891.84
2022-12-11T09:46:54.149Z,99885.78
2022-12-11T09:49:29.234Z,99884.00
2022-12-11T09:52:01.728Z,99887.53
2022-12-11T09:54:28.410Z,99850.47
2022-12-11T09:57:06.950Z,99880.56
2022-12-11T10:00:05.917Z,99872.59
2022-12-11T10:02:49.234Z,99868.94
2022-12-11T10:05:28.271Z,99881.91
2022-12-11T10:08:09.954Z,99843.81
2022-12-11T10:10:51.314Z,99880.06
2022-12-11T10:13:46.305Z,99880.13
2022-12-11T10:16:37.560Z,99883.47
2022-12-11T10:19:04.507Z,99872.19
2022-12-11T10:21:40.123Z,99875.63
2022-12-11T10:25:07.659Z,99884.31
2022-12-11T10:27:22.895Z,99875.81
2022-12-11T10:29:55.199Z,99878.41
2022-12-11T10:32:24.767Z,99880.06
2022-12-11T10:35:01.232Z,99846.50
2022-12-11T10:37:27.777Z,99870.47
2022-12-11T10:39:54.323Z,99861.84
2022-12-11T10:42:24.191Z,99878.25
2022-12-11T10:45:00.525Z,99861.84
2022-12-11T10:47:27.654Z,99868.03
2022-12-11T10:50:02.852Z,99867.25
2022-12-11T10:52:44.405Z,99863.88
2022-12-11T10:55:28.455Z,99859.72
2022-12-11T10:57:59.736Z,99854.59
2022-12-11T11:00:41.293Z,99852.00
2022-12-11T11:03:26.475Z,99854.63
2022-12-11T11:06:14.741Z,99850.22
2022-12-11T11:08:44.534Z,99841.53
2022-12-11T11:11:36.898Z,99840.69
2022-12-11T11:14:15.645Z,99837.19
2022-12-11T11:16:45.482Z,99838.06
2022-12-11T11:19:33.308Z,99834.53
2022-12-11T11:22:15.020Z,99832.75
2022-12-11T11:24:46.842Z,99830.94
2022-12-11T11:27:20.251Z,99829.22
2022-12-11T11:29:52.818Z,99825.72
2022-12-11T11:32:38.626Z,99825.56
2022-12-11T11:35:16.967Z,99828.16
2022-12-11T11:37:56.152Z,99807.34
2022-12-11T11:40:27.445Z,99790.97
2022-12-11T11:43:07.566Z,99818.34
2022-12-11T11:45:51.638Z,99796.72
2022-12-11T11:48:40.453Z,99809.63
2022-12-11T11:51:36.102Z,99807.03
2022-12-11T11:54:15.655Z,99800.22
2022-12-11T11:56:42.454Z,99804.63
2022-12-11T11:59:24.179Z,99802.03
2022-12-11T12:01:55.629Z,99795.25
2022-12-11T12:04:23.129Z,99808.38
2022-12-11T12:06:58.683Z,99803.16
2022-12-11T12:09:49.747Z,99804.03
2022-12-11T12:12:34.124Z,99803.19
2022-12-11T12:15:28.757Z,99795.31
2022-12-11T12:17:58.408Z,99789.97
2022-12-11T12:20:35.465Z,99787.34
2022-12-11T12:23:38.243Z,99795.00
2022-12-11T12:26:12.743Z,99739.94
2022-12-11T12:28:52.238Z,99787.28
2022-12-11T12:31:41.100Z,99785.44
2022-12-11T12:34:32.515Z,99756.19
2022-12-11T12:37:28.481Z,99791.44
2022-12-11T12:40:14.621Z,99793.19
2022-12-11T12:42:43.987Z,99795.88
2022-12-11T12:45:16.433Z,99804.56
2022-12-11T12:47:50.355Z,99802.81
2022-12-11T12:50:27.114Z,99796.84
2022-12-11T12:52:55.279Z,99795.00
2022-12-11T12:55:29.028Z,99794.97
2022-12-11T12:58:07.716Z,99787.22
2022-12-11T13:00:38.822Z,99785.44
2022-12-11T13:03:20.931Z,99794.97
2022-12-11T13:05:56.623Z,99787.09
2022-12-11T13:08:29.413Z,99749.31
2022-12-11T13:11:06.229Z,99793.25
2022-12-11T13:13:40.952Z,99790.66
2022-12-11T13:16:16.644Z,99782.94
2022-12-11T13:18:45.692Z,99793.34
2022-12-11T13:21:35.554Z,99788.13
2022-12-11T13:24:20.292Z,99756.13
2022-12-11T13:26:50.500Z,99740.69
2022-12-11T13:29:35.926Z,99786.31
2022-12-11T13:32:17.563Z,99785.38
2022-12-11T13:34:55.416Z,99785.28
2022-12-11T13:37:32.011Z,99786.00
2022-12-11T13:40:00.037Z,99779.91
2022-12-11T13:42:36.154Z,99789.25
2022-12-11T13:45:03.956Z,99790.91
2022-12-11T13:47:32.152Z,99766.03
2022-12-11T13:50:19.480Z,99797.22
2022-12-11T13:53:16.240Z,99791.28
2022-12-11T13:55:43.521Z,99798.19
2022-12-11T13:58:21.683Z,99795.56
2022-12-11T14:00:56.959Z,99797.28
2022-12-11T14:03:24.107Z,99791.28
2022-12-11T14:05:50.727Z,99786.22
2022-12-11T14:08:22.696Z,99795.69
2022-12-11T14:10:55.637Z,99793.13
2022-12-11T14:13:25.129Z,99788.75
2022-12-11T14:15:52.675Z,99789.69
2022-12-11T14:18:24.758Z,99792.28
2022-12-11T14:20:56.539Z,99796.66
2022-12-11T14:23:27.290Z,99796.84
2022-12-11T14:25:56.789Z,99801.06
2022-12-11T14:28:27.521Z,99795.84
2022-12-11T14:30:59.172Z,99800.97
2022-12-11T14:33:37.181Z,99796.66
2022-12-11T14:36:05.324Z,99796.59
2022-12-11T14:38:46.168Z,99803.47
2022-12-11T14:41:18.819Z,99806.91
2022-12-11T14:43:57.241Z,99804.31
2022-12-11T14:46:37.283Z,99803.38
2022-12-11T14:49:14.695Z,99810.34
2022-12-11T14:51:42.188Z,99807.72
2022-12-11T14:54:20.553Z,99812.91
2022-12-11T14:56:47.561Z,99811.19
2022-12-11T14:59:27.014Z,99808.50
2022-12-11T15:02:03.444Z,99810.13
2022-12-11T15:04:32.772Z,99811.03
2022-12-11T15:06:59.708Z,99819.72
2022-12-11T15:09:29.677Z,99817.97
2022-12-11T15:11:59.340Z,99811.00
2022-12-11T15:14:27.417Z,99808.44
2022-12-11T15:16:57.538Z,99817.84
2022-12-11T15:19:30.651Z,99816.13
2022-12-11T15:22:05.753Z,99805.75
2022-12-11T15:24:40.158Z,99818.13
2022-12-11T15:27:14.396Z,99820.84
2022-12-11T15:29:41.510Z,99827.94
2022-12-11T15:32:07.909Z,99835.91
2022-12-11T15:34:47.913Z,99829.19
2022-12-11T15:37:23.435Z,99831.84
2022-12-11T15:39:50.337Z,99825.78
2022-12-11T15:42:25.833Z,99830.91
2022-12-11T15:44:55.550Z,99840.44
2022-12-11T15:47:25.508Z,99835.25
2022-12-11T15:50:08.361Z,99838.63
2022-12-11T15:52:34.919Z,99842.09
2022-12-11T15:55:05.235Z,99840.38
2022-12-11T15:57:32.066Z,99831.78
2022-12-11T15:59:58.930Z,99837.84
2022-12-11T16:02:27.778Z,99830.09
2022-12-11T16:04:56.538Z,99848.22
2022-12-11T16:07:26.301Z,99852.47
2022-12-11T16:09:54.597Z,99849.00
2022-12-11T16:12:21.209Z,99846.44
2022-12-11T16:14:47.844Z,99847.34
2022-12-11T16:17:15.729Z,99845.63
2022-12-11T16:19:47.991Z,99841.28
2022-12-11T16:22:14.903Z,99837.84
2022-12-11T16:24:42.991Z,99839.59
2022-12-11T16:27:09.944Z,99844.78
2022-12-11T16:29:38.822Z,99835.28
2022-12-11T16:32:08.276Z,99843.88
2022-12-11T16:34:37.699Z,99844.75
2022-12-11T16:37:06.021Z,99843.88
2022-12-11T16:39:32.508Z,99839.53
2022-12-11T16:41:58.999Z,99838.63
2022-12-11T16:44:27.302Z,99842.06
2022-12-11T16:46:54.222Z,99839.47
2022-12-11T16:49:21.584Z,99832.59
2022-12-11T16:51:49.552Z,99810.25
2022-12-11T16:54:17.401Z,99838.63
2022-12-11T16:56:44.362Z,99831.75
2022-12-11T16:59:12.822Z,99837.81
2022-12-11T17:01:39.963Z,99805.06
2022-12-11T17:04:06.964Z,99829.06
2022-12-11T17:06:33.733Z,99827.34
2022-12-11T17:09:00.853Z,99827.34
2022-12-11T17:11:27.456Z,99828.94
2022-12-11T17:13:55.706Z,99795.25
2022-12-11T17:16:22.452Z,99830.56
2022-12-11T17:18:48.964Z,99828.06
2022-12-11T17:21:17.785Z,99796.28
2022-12-11T17:23:44.662Z,99798.88
2022-12-11T17:26:12.111Z,99826.44
2022-12-11T17:28:39.560Z,99825.59
2022-12-11T17:31:13.249Z,99822.25
2022-12-11T17:33:40.012Z,99817.22
2022-12-11T17:36:07.942Z,99818.84
2022-12-11T17:38:34.608Z,99812.78
2022-12-11T17:41:05.758Z,99817.94
2022-12-11T17:43:32.322Z,99791.25
2022-12-11T17:45:58.916Z,99817.03
2022-12-11T17:48:25.448Z,99820.41
2022-12-11T17:50:53.894Z,99794.56
2022-12-11T17:53:21.282Z,99807.50
2022-12-11T17:55:49.209Z,99805.00
2022-12-11T17:58:17.855Z,99819.75
2022-12-11T18:00:49.322Z,99807.69
2022-12-11T18:03:16.322Z,99812.03
2022-12-11T18:05:45.019Z,99824.94
2022-12-11T18:08:33.938Z,99824.06
2022-12-11T18:11:21.771Z,99818.84
2022-12-11T18:13:49.491Z,99818.00
2022-12-11T18:16:19.253Z,99821.47
2022-12-11T18:18:47.921Z,99813.69
2022-12-11T18:21:17.377Z,99814.59
2022-12-11T18:23:44.353Z,99812.06
2022-12-11T18:26:11.572Z,99812.94
2022-12-11T18:28:38.104Z,99818.97
2022-12-11T18:31:10.552Z,99818.97
2022-12-11T18:33:39.153Z,99815.50
2022-12-11T18:36:06.390Z,99806.91
2022-12-11T18:38:33.931Z,99818.13
2022-12-11T18:41:05.787Z,99786.22
2022-12-11T18:43:32.495Z,99813.72
2022-12-11T18:45:59.043Z,99820.69
2022-12-11T18:48:25.954Z,99825.00
2022-12-11T18:50:52.808Z,99825.81
2022-12-11T18:53:21.992Z,99812.81
2022-12-11T18:55:49.150Z,99820.56
2022-12-11T18:58:18.694Z,99821.38
2022-12-11T19:00:45.657Z,99806.59
2022-12-11T19:03:13.778Z,99825.38
2022-12-11T19:05:43.685Z,99829.72
2022-12-11T19:08:13.866Z,99824.72
2022-12-11T19:10:46.227Z,99835.22
2022-12-11T19:13:13.896Z,99828.34
2022-12-11T19:15:42.820Z,99825.75
2022-12-11T19:18:10.396Z,99813.66
2022-12-11T19:21:03.235Z,99812.00
2022-12-11T19:23:25.659Z,99815.47
2022-12-11T19:25:52.213Z,99804.28
2022-12-11T19:28:18.864Z,99810.34
2022-12-11T19:30:47.014Z,99812.94
2022-12-11T19:33:13.874Z,99818.16
2022-12-11T19:35:40.567Z,99816.41
2022-12-11T19:38:08.426Z,99820.75
2022-12-11T19:40:43.122Z,99819.88
2022-12-11T19:43:10.729Z,99823.38
2022-12-11T19:45:37.701Z,99826.84
2022-12-11T19:48:04.544Z,99806.13
2022-12-11T19:50:31.188Z,99827.69
2022-12-11T19:52:57.736Z,99822.44
2022-12-11T19:55:24.308Z,99822.47
2022-12-11T19:57:50.901Z,99821.59
2022-12-11T20:00:18.834Z,99819.88
2022-12-11T20:02:45.327Z,99793.22
2022-12-11T20:05:13.189Z,99810.38
2022-12-11T20:07:40.138Z,99803.53
2022-12-11T20:10:07.204Z,99782.84
2022-12-11T20:12:33.773Z,99813.81
2022-12-11T20:15:00.312Z,99811.19
2022-12-11T20:17:26.933Z,99814.50
2022-12-11T20:19:53.568Z,99797.13
2022-12-11T20:22:20.144Z,99813.44
2022-12-11T20:24:46.655Z,99804.69
2022-12-11T20:27:13.217Z,99777.13
2022-12-11T20:29:40.238Z,99801.38
2022-12-11T20:32:07.411Z,99811.72
2022-12-11T20:34:34.145Z,99813.56
2022-12-11T20:37:00.693Z,99775.72
2022-12-11T20:39:27.407Z,99812.75
2022-12-11T20:41:54.154Z,99798.94
2022-12-11T20:44:20.697Z,99805.78
2022-12-11T20:46:47.302Z,99799.53
2022-12-11T20:49:13.901Z,99802.94
2022-12-11T20:51:41.008Z,99795.94
2022-12-11T20:54:07.824Z,99813.34
2022-12-11T20:56:34.427Z,99811.69
2022-12-11T20:59:01.214Z,99811.78
2022-12-11T21:01:31.339Z,99815.31
2022-12-11T21:03:58.757Z,99792.97
2022-12-11T21:06:30.856Z,99805.97
2022-12-11T21:09:02.038Z,99814.66
2022-12-11T21:11:28.753Z,99816.38
2022-12-11T21:13:55.656Z,99807.72
2022-12-11T21:16:23.423Z,99808.53
2022-12-11T21:18:50.189Z,99812.06
2022-12-11T21:21:17.005Z,99801.72
2022-12-11T21:23:44.267Z,99807.81
2022-12-11T21:26:11.576Z,99808.66
2022-12-11T21:28:38.170Z,99810.47
2022-12-11T21:31:07.503Z,99807.84
2022-12-11T21:33:34.406Z,99796.63
2022-12-11T21:36:01.452Z,99783.78
2022-12-11T21:38:28.737Z,99817.34
2022-12-11T21:40:56.025Z,99805.19
2022-12-11T21:43:23.529Z,99806.00
2022-12-11T21:46:05.716Z,99808.53
2022-12-11T21:48:32.897Z,99805.84
2022-12-11T21:51:08.761Z,99804.97
2022-12-11T21:53:35.555Z,99810.97
2022-12-11T21:56:07.322Z,99804.09
2022-12-11T21:58:33.940Z,99801.53
2022-12-11T22:01:00.989Z,99815.38
2022-12-11T22:03:28.115Z,99806.81
2022-12-11T22:05:54.752Z,99764.75
2022-12-11T22:08:21.885Z,99809.53
2022-12-11T22:10:49.398Z,99815.69
2022-12-11T22:13:15.963Z,99817.44
2022-12-11T22:15:42.638Z,99814.03
2022-12-11T22:18:09.342Z,99813.19
2022-12-11T22:20:38.267Z,99787.50
2022-12-11T22:23:05.081Z,99808.91
2022-12-11T22:25:31.659Z,99819.34
2022-12-11T22:27:58.294Z,99816.75
2022-12-11T22:30:24.848Z,99814.19
2022-12-11T22:32:51.534Z,99819.38
2022-12-11T22:35:19.481Z,99821.16
2022-12-11T22:37:48.536Z,99819.50
2022-12-11T22:40:15.387Z,99804.09
2022-12-11T22:42:41.870Z,99827.34
2022-12-11T22:45:09.046Z,99798.09
2022-12-11T22:47:35.750Z,99828.19
2022-12-11T22:50:02.601Z,99830.78
2022-12-11T22:52:30.305Z,99826.47
2022-12-11T22:54:56.884Z,99829.03
2022-12-11T22:57:23.496Z,99831.69
2022-12-11T22:59:50.166Z,99829.91
2022-12-11T23:02:17.050Z,99834.22
2022-12-11T23:04:43.791Z,99826.34
2022-12-11T23:07:10.446Z,99823.78
2022-12-11T23:09:37.066Z,99831.63
2022-12-11T23:12:03.897Z,99816.13
2022-12-11T23:14:30.530Z,99817.00
2022-12-11T23:16:57.104Z,99835.13
2022-12-11T23:19:25.670Z,99836.84
2022-12-11T23:21:52.847Z,99835.03
2022-12-11T23:24:19.503Z,99826.47
2022-12-11T23:26:46.528Z,99833.41
2022-12-11T23:29:13.096Z,99829.06
2022-12-11T23:31:39.601Z,99828.22
2022-12-11T23:34:06.384Z,99840.34
2022-12-11T23:36:33.061Z,99838.56
2022-12-11T23:38:59.544Z,99842.84
2022-12-11T23:41:26.076Z,99829.91
2022-12-11T23:43:52.747Z,99835.81
2022-12-11T23:46:22.385Z,99841.72
2022-12-11T23:48:49.919Z,99841.63
2022-12-11T23:51:18.836Z,99842.41
2022-12-11T23:53:47.961Z,99838.88
2022-12-11T23:56:18.183Z,99841.50
2022-12-11T23:58:44.856Z,99826.06
